createdAt,value
2023-05-20T00:02:27.209Z,18.00
2023-05-20T00:07:30.595Z,18.00
2023-05-20T00:12:35.637Z,18.00
2023-05-20T00:17:38.878Z,17.90
2023-05-20T00:22:42.078Z,17.90
2023-05-20T00:27:47.300Z,17.90
2023-05-20T00:32:50.589Z,17.90
2023-05-20T00:37:54.174Z,17.80
2023-05-20T00:42:58.957Z,17.80
2023-05-20T00:48:04.210Z,17.70
2023-05-20T00:53:08.662Z,17.70
2023-05-20T00:58:13.393Z,17.60
2023-05-20T01:03:17.791Z,17.60
2023-05-20T01:08:21.368Z,17.60
2023-05-20T01:13:32.493Z,17.50
2023-05-20T01:18:37.034Z,17.50
2023-05-20T01:23:42.853Z,17.50
2023-05-20T01:28:46.126Z,17.40
2023-05-20T01:33:55.192Z,17.40
2023-05-20T01:39:01.121Z,17.40
2023-05-20T01:44:05.137Z,17.30
2023-05-20T01:49:08.992Z,17.30
2023-05-20T01:54:14.161Z,17.30
2023-05-20T01:59:19.505Z,17.20
2023-05-20T02:04:23.025Z,17.20
2023-05-20T02:09:27.746Z,17.10
2023-05-20T02:14:31.057Z,17.10
2023-05-20T02:19:34.447Z,17.10
2023-05-20T02:24:39.389Z,17.00
2023-05-20T02:29:44.094Z,17.00
2023-05-20T02:34:47.579Z,16.90
2023-05-20T02:39:52.153Z,16.80
2023-05-20T02:44:58.472Z,16.70
2023-05-20T02:50:01.728Z,16.70
2023-05-20T02:55:07.723Z,16.60
2023-05-20T03:00:12.149Z,16.60
2023-05-20T03:05:15.324Z,16.60
2023-05-20T03:10:19.917Z,16.50
2023-05-20T03:15:23.042Z,16.50
2023-05-20T03:20:29.087Z,16.50
2023-05-20T03:25:33.887Z,16.50
2023-05-20T03:30:37.894Z,16.50
2023-05-20T03:35:41.549Z,16.40
2023-05-20T03:40:46.184Z,16.40
2023-05-20T03:45:49.359Z,16.40
2023-05-20T03:50:52.608Z,16.40
2023-05-20T03:55:58.049Z,16.40
2023-05-20T04:01:01.328Z,16.30
2023-05-20T04:06:04.956Z,16.30
2023-05-20T04:11:09.631Z,16.30
2023-05-20T04:16:12.839Z,16.40
2023-05-20T04:21:16.199Z,16.40
2023-05-20T04:26:21.054Z,16.40
2023-05-20T04:31:26.823Z,16.40
2023-05-20T04:36:31.718Z,16.40
2023-05-20T04:41:37.618Z,16.40
2023-05-20T04:46:41.668Z,16.40
2023-05-20T04:51:45.097Z,16.40
2023-05-20T04:56:49.946Z,16.40
2023-05-20T05:01:54.192Z,16.50
2023-05-20T05:06:57.380Z,16.50
2023-05-20T05:12:02.814Z,16.50
2023-05-20T05:17:06.320Z,16.60
2023-05-20T05:22:09.661Z,16.60
2023-05-20T05:27:16.207Z,16.70
2023-05-20T05:32:19.812Z,16.80
2023-05-20T05:37:23.192Z,16.90
2023-05-20T05:42:27.859Z,17.00
2023-05-20T05:47:32.805Z,17.10
2023-05-20T05:52:37.277Z,17.20
2023-05-20T05:57:42.195Z,17.30
2023-05-20T06:02:45.791Z,17.40
2023-05-20T06:07:49.023Z,17.50
2023-05-20T06:12:53.741Z,17.60
2023-05-20T06:17:57.149Z,17.80
2023-05-20T06:23:00.398Z,17.90
2023-05-20T06:28:05.340Z,18.00
2023-05-20T06:33:08.669Z,18.20
2023-05-20T06:38:11.908Z,18.30
2023-05-20T06:43:16.632Z,18.40
2023-05-20T06:48:19.909Z,18.60
2023-05-20T06:53:23.036Z,18.70
2023-05-20T06:58:27.606Z,18.90
2023-05-20T07:03:31.022Z,19.00
2023-05-20T07:08:34.325Z,19.20
2023-05-20T07:13:39.121Z,19.30
2023-05-20T07:18:42.354Z,19.50
2023-05-20T07:23:45.775Z,19.60
2023-05-20T07:28:51.607Z,19.70
2023-05-20T07:33:54.835Z,19.90
2023-05-20T07:39:04.180Z,20.10
2023-05-20T07:44:11.462Z,20.20
2023-05-20T07:49:14.668Z,20.40
2023-05-20T07:54:17.939Z,20.60
2023-05-20T07:59:22.617Z,20.80
2023-05-20T08:04:27.782Z,21.00
2023-05-20T08:09:32.786Z,21.20
2023-05-20T08:14:37.505Z,21.40
2023-05-20T08:19:41.072Z,21.60
2023-05-20T08:24:44.167Z,21.80
2023-05-20T08:29:48.691Z,21.90
2023-05-20T08:34:51.954Z,22.10
2023-05-20T08:39:55.232Z,22.30
2023-05-20T08:45:01.192Z,22.50
2023-05-20T08:50:04.605Z,22.70
2023-05-20T08:55:11.462Z,22.90
2023-05-20T09:00:18.351Z,23.10
2023-05-20T09:05:22.322Z,23.30
2023-05-20T09:10:27.291Z,23.40
2023-05-20T09:20:37.309Z,23.60
2023-05-20T09:25:40.742Z,23.60
2023-05-20T09:30:46.157Z,23.70
2023-05-20T09:35:51.295Z,23.90
2023-05-20T09:40:55.614Z,24.00
2023-05-20T09:46:00.973Z,24.10
2023-05-20T09:51:05.386Z,24.30
2023-05-20T09:56:08.885Z,24.40
2023-05-20T10:01:13.607Z,24.50
2023-05-20T10:06:34.216Z,24.60
2023-05-20T10:11:42.526Z,24.70
2023-05-20T10:16:52.736Z,24.80
2023-05-20T10:22:00.239Z,24.90
2023-05-20T10:27:05.243Z,25.10
2023-05-20T10:32:09.885Z,25.20
2023-05-20T10:37:24.317Z,25.20
2023-05-20T10:42:31.437Z,25.20
2023-05-20T10:47:36.757Z,25.20
2023-05-20T10:52:40.473Z,25.30
2023-05-20T10:57:44.271Z,25.40
2023-05-20T11:02:50.559Z,25.60
2023-05-20T11:08:04.469Z,25.70
2023-05-20T11:13:15.353Z,25.70
2023-05-20T11:18:20.242Z,25.70
2023-05-20T11:23:24.686Z,25.80
2023-05-20T11:28:28.282Z,25.80
2023-05-20T11:33:32.962Z,25.80
2023-05-20T11:38:36.539Z,25.80
2023-05-20T11:43:41.627Z,25.80
2023-05-20T11:48:54.886Z,25.90
2023-05-20T11:54:02.584Z,26.00
2023-05-20T11:59:07.347Z,26.10
2023-05-20T12:04:13.420Z,26.10
2023-05-20T12:09:17.098Z,26.10
2023-05-20T12:14:20.320Z,26.10
2023-05-20T12:19:26.111Z,26.20
2023-05-20T12:24:29.266Z,26.20
2023-05-20T12:29:32.387Z,26.10
2023-05-20T12:34:36.997Z,26.00
2023-05-20T12:39:40.138Z,26.00
2023-05-20T12:44:43.260Z,26.00
2023-05-20T12:49:48.966Z,26.00
2023-05-20T12:54:52.753Z,26.00
2023-05-20T12:59:56.727Z,26.10
2023-05-20T13:05:01.358Z,26.10
2023-05-20T13:10:04.879Z,26.20
2023-05-20T13:15:09.279Z,26.40
2023-05-20T13:20:14.619Z,26.50
2023-05-20T13:25:17.834Z,26.60
2023-05-20T13:30:20.934Z,26.70
2023-05-20T13:35:25.576Z,26.80
2023-05-20T13:40:28.748Z,27.00
2023-05-20T13:45:31.947Z,27.00
2023-05-20T13:50:36.649Z,27.10
2023-05-20T13:55:40.036Z,27.20
2023-05-20T14:00:43.288Z,27.20
2023-05-20T14:05:48.232Z,27.30
2023-05-20T14:10:54.763Z,27.30
2023-05-20T14:15:58.151Z,27.30
2023-05-20T14:21:02.713Z,27.40
2023-05-20T14:26:05.925Z,27.40
2023-05-20T14:31:10.760Z,27.50
2023-05-20T14:36:15.323Z,27.40
2023-05-20T14:41:18.695Z,27.50
2023-05-20T14:46:23.133Z,27.40
2023-05-20T14:51:28.188Z,27.30
2023-05-20T14:56:32.024Z,27.20
2023-05-20T15:01:35.442Z,27.20
2023-05-20T15:06:40.308Z,27.20
2023-05-20T15:11:43.703Z,27.10
2023-05-20T15:16:47.432Z,27.00
2023-05-20T15:21:52.684Z,27.00
2023-05-20T15:26:56.136Z,27.00
2023-05-20T15:32:00.033Z,26.90
2023-05-20T15:37:04.769Z,26.90
2023-05-20T15:42:08.194Z,26.90
2023-05-20T15:47:11.359Z,26.80
2023-05-20T15:52:16.227Z,26.80
2023-05-20T15:57:19.598Z,26.80
2023-05-20T16:02:23.068Z,26.80
2023-05-20T16:07:28.050Z,26.80
2023-05-20T16:12:31.396Z,26.80
2023-05-20T16:17:34.645Z,26.70
2023-05-20T16:22:39.184Z,26.70
2023-05-20T16:27:42.355Z,26.70
2023-05-20T16:32:45.535Z,26.60
2023-05-20T16:37:51.210Z,26.70
2023-05-20T16:42:54.339Z,26.70
2023-05-20T16:47:57.576Z,26.60
2023-05-20T16:53:02.159Z,26.60
2023-05-20T16:58:05.291Z,26.60
2023-05-20T17:03:08.682Z,26.50
2023-05-20T17:08:13.194Z,26.40
2023-05-20T17:13:16.434Z,26.30
2023-05-20T17:18:19.542Z,26.30
2023-05-20T17:23:24.134Z,26.20
2023-05-20T17:28:27.265Z,26.20
2023-05-20T17:33:30.562Z,26.20
2023-05-20T17:38:35.170Z,26.10
2023-05-20T17:43:38.332Z,26.10
2023-05-20T17:48:41.560Z,26.10
2023-05-20T17:53:46.849Z,26.00
2023-05-20T17:58:50.012Z,25.90
2023-05-20T18:03:53.346Z,25.80
2023-05-20T18:09:00.007Z,25.70
2023-05-20T18:14:03.771Z,25.60
2023-05-20T18:19:07.038Z,25.50
2023-05-20T18:24:12.014Z,25.40
2023-05-20T18:29:15.150Z,25.30
2023-05-20T18:34:18.414Z,25.30
2023-05-20T18:39:22.996Z,25.20
2023-05-20T18:44:26.883Z,25.20
2023-05-20T18:49:30.183Z,25.10
2023-05-20T18:54:34.808Z,25.00
2023-05-20T18:59:38.136Z,24.90
2023-05-20T19:04:41.471Z,24.90
2023-05-20T19:09:46.069Z,24.80
2023-05-20T19:14:49.201Z,24.70
2023-05-20T19:19:52.710Z,24.60
2023-05-20T19:24:57.537Z,24.60
2023-05-20T19:30:00.953Z,24.50
2023-05-20T19:35:05.727Z,24.40
2023-05-20T19:40:12.000Z,24.30
2023-05-20T19:45:15.271Z,24.20
2023-05-20T19:50:18.504Z,24.10
2023-05-20T19:55:23.119Z,24.00
2023-05-20T20:00:26.477Z,23.90
2023-05-20T20:05:30.698Z,23.80
2023-05-20T20:10:37.526Z,23.70
2023-05-20T20:15:40.956Z,23.60
2023-05-20T20:20:44.227Z,23.50
2023-05-20T20:25:50.670Z,23.50
2023-05-20T20:30:54.022Z,23.40
2023-05-20T20:35:57.306Z,23.40
2023-05-20T20:41:03.793Z,23.30
2023-05-20T20:46:07.384Z,23.20
2023-05-20T20:51:10.675Z,23.20
2023-05-20T20:56:15.371Z,23.20
2023-05-20T21:01:18.526Z,23.10
2023-05-20T21:06:21.845Z,23.00
2023-05-20T21:11:28.028Z,23.00
2023-05-20T21:16:31.198Z,22.90
2023-05-20T21:21:34.335Z,22.90
2023-05-20T21:26:38.823Z,22.90
2023-05-20T21:31:42.083Z,22.90
2023-05-20T21:36:45.188Z,22.80
2023-05-20T21:41:49.660Z,22.80
2023-05-20T21:46:53.021Z,22.80
2023-05-20T21:51:56.386Z,22.70
2023-05-20T21:57:02.585Z,22.70
2023-05-20T22:02:06.260Z,22.60
2023-05-20T22:07:09.442Z,22.60
2023-05-20T22:12:15.542Z,22.50
2023-05-20T22:17:18.886Z,22.50
2023-05-20T22:22:22.128Z,22.40
2023-05-20T22:27:26.671Z,22.40
2023-05-20T22:32:29.843Z,22.40
2023-05-20T22:37:33.538Z,22.30
2023-05-20T22:42:38.210Z,22.20
2023-05-20T22:47:41.375Z,22.20
2023-05-20T22:52:45.164Z,22.20
2023-05-20T22:57:49.636Z,22.20
2023-05-20T23:02:52.833Z,22.10
2023-05-20T23:07:56.076Z,22.20
2023-05-20T23:13:00.580Z,22.10
2023-05-20T23:18:03.997Z,22.10
2023-05-20T23:23:11.288Z,22.00
2023-05-20T23:28:16.226Z,21.90
2023-05-20T23:33:24.244Z,21.90
2023-05-20T23:38:28.126Z,21.80
2023-05-20T23:43:32.646Z,21.80
2023-05-20T23:48:36.066Z,21.70
2023-05-20T23:53:39.216Z,21.70
2023-05-20T23:58:43.719Z,21.70
